Etusivu
METAR-TAF:

METAR-TAF

Lentoasemat :

Laurel, Mississippi, Yhdysvallat

Leveyspiiri: 31-40-23N, Pituuspiiri: 089-10-22W, korkeus merenpinnasta: 73 m

Tämänhetkinen sää

Tämä raportti tehtiin 31 minuuttia sitten, kello 11.55 UTC
Tuuli 6 kn etelästä
Lämpötila 13°C
Kosteus 88%
Ilmanpaine 1014 hPa
Näkyvyys: 16.1 km
Pilvistä 8000 ft:n korkeudessa

METAR: KLUL 241155Z AUTO 18006KT 10SM OVC080 13/11 A2995 RMK A02 T01300111 10136 20126

Aika: 06:26 (12:26 UTC)


TAF: puuttuu

Säähavainnot ja -ennusteet yli 4000 lentoasemalta (METAR- ja TAF-raportit).

Käytössä olevat sääasemat on merkitty karttaan keltaisilla ja punaisilla pisteillä.

Aseta hiiri pisteen päälle nähdäksesi sääaseman nimen.

Klikkaa sitten nähdäksesi säähavainnot ja -ennusteet.

Kartan vaihtaminen: klikkaa mustalla rastilla varustettuja vihreitä pisteitä, niin voit zoomata sisään; viivalla varustettua vihreää pistettä, niin voit zoomata ulos tai vihreitä nuolia, niin pääset viereisille kartoille.


METAR-TAF: